Time;durP1;ratioP1;P1;durP2;ratioP2;P2;SDS_P1;SDS_P2;PMS_P1;PMS_P2;Temp;Humidity;BMP_temperature;BMP_pressure;BME280_temperature;BME280_humidity;BME280_pressure;Samples;Min_cycle;Max_cycle;Signal;HPM_P1;HPM_P2
2023/05/25 00:00:20;;;;;;;20.25;6.15;;;10.20;99.90;;;;;;5026541;28;20514;-76
2023/05/25 00:02:45;;;;;;;19.05;6.20;;;10.30;99.90;;;;;;5038584;28;20072;-76
2023/05/25 00:05:13;;;;;;;16.30;6.53;;;10.30;99.90;;;;;;5057137;28;20049;-76
2023/05/25 00:07:39;;;;;;;18.60;5.80;;;10.30;99.90;;;;;;5033824;28;20123;-76
2023/05/25 00:10:06;;;;;;;18.70;6.47;;;10.30;99.90;;;;;;5058217;28;20056;-76
2023/05/25 00:12:32;;;;;;;18.60;6.00;;;10.30;99.90;;;;;;5047595;28;20049;-76
2023/05/25 00:14:59;;;;;;;16.25;6.00;;;10.30;99.90;;;;;;5049595;28;20055;-76
2023/05/25 00:17:30;;;;;;;18.30;6.05;;;10.30;99.90;;;;;;5053235;28;20087;-76
2023/05/25 00:19:57;;;;;;;17.00;6.20;;;10.30;99.90;;;;;;5033868;28;20083;-76
2023/05/25 00:22:23;;;;;;;19.30;6.38;;;10.30;99.90;;;;;;5054839;28;20037;-76
2023/05/25 00:24:49;;;;;;;20.30;5.70;;;10.30;99.90;;;;;;5058996;28;20087;-76
2023/05/25 00:27:14;;;;;;;14.13;5.65;;;10.30;99.90;;;;;;5050828;28;20387;-76
2023/05/25 00:29:40;;;;;;;19.42;6.78;;;10.30;99.90;;;;;;5057710;28;20041;-76
2023/05/25 00:32:06;;;;;;;17.52;5.30;;;10.30;99.90;;;;;;5062729;28;20486;-76
2023/05/25 00:34:32;;;;;;;20.55;5.55;;;10.30;99.90;;;;;;5049234;28;20036;-76
2023/05/25 00:36:58;;;;;;;14.23;5.75;;;10.30;99.90;;;;;;5030004;28;20033;-76
2023/05/25 00:39:23;;;;;;;18.15;6.38;;;10.30;99.90;;;;;;5057323;28;20040;-76
2023/05/25 00:41:49;;;;;;;18.38;5.85;;;10.30;99.90;;;;;;5031299;28;20167;-76
2023/05/25 00:44:15;;;;;;;18.25;5.85;;;10.20;99.90;;;;;;5043334;28;20170;-76
2023/05/25 00:46:48;;;;;;;16.02;5.45;;;10.20;99.90;;;;;;5050987;28;20047;-76
2023/05/25 00:49:16;;;;;;;16.35;5.95;;;10.20;99.90;;;;;;5066746;28;20044;-76
2023/05/25 00:51:45;;;;;;;16.20;5.85;;;10.20;99.90;;;;;;5052531;28;20517;-76
2023/05/25 00:54:13;;;;;;;14.77;5.93;;;10.20;99.90;;;;;;5038864;28;20110;-76
2023/05/25 00:56:41;;;;;;;13.82;5.45;;;10.20;99.90;;;;;;5060951;28;20049;-76
2023/05/25 00:59:10;;;;;;;21.15;5.93;;;10.20;99.90;;;;;;5067687;28;20040;-76
2023/05/25 01:01:39;;;;;;;15.40;5.55;;;10.20;99.90;;;;;;5066632;28;20037;-76
2023/05/25 01:04:14;;;;;;;16.25;5.78;;;10.10;99.90;;;;;;5041283;28;20044;-76
2023/05/25 01:06:43;;;;;;;17.13;5.40;;;10.20;99.90;;;;;;5050816;28;20099;-76
2023/05/25 01:09:12;;;;;;;18.35;6.15;;;10.20;99.90;;;;;;5063518;28;20040;-76
2023/05/25 01:11:41;;;;;;;13.82;4.95;;;10.10;99.90;;;;;;5047133;28;20044;-76
2023/05/25 01:14:07;;;;;;;18.42;6.22;;;10.20;99.90;;;;;;5068329;28;20087;-76
2023/05/25 01:16:36;;;;;;;15.15;5.60;;;10.10;99.90;;;;;;5055862;28;20040;-76
2023/05/25 01:19:03;;;;;;;15.95;6.10;;;10.10;99.90;;;;;;5050294;28;20778;-76
2023/05/25 01:21:40;;;;;;;18.52;6.45;;;10.10;99.90;;;;;;5043658;28;20068;-76
2023/05/25 01:24:21;;;;;;;16.98;5.88;;;10.10;99.90;;;;;;5056695;28;20036;-76
2023/05/25 01:27:22;;;;;;;17.08;5.40;;;10.10;99.90;;;;;;5050418;28;20048;-76
2023/05/25 01:29:48;;;;;;;19.15;6.45;;;10.00;99.90;;;;;;5049918;28;20115;-76
2023/05/25 01:32:16;;;;;;;17.25;6.22;;;10.00;99.90;;;;;;5060794;28;20047;-76
2023/05/25 01:34:43;;;;;;;18.10;5.90;;;10.00;99.90;;;;;;5065242;28;20049;-76
2023/05/25 01:37:12;;;;;;;15.30;6.30;;;10.00;99.90;;;;;;5056344;28;20123;-76
2023/05/25 01:39:39;;;;;;;15.68;6.30;;;10.00;99.90;;;;;;5054971;28;20490;-76
2023/05/25 01:42:05;;;;;;;17.38;6.40;;;10.00;99.90;;;;;;5053800;28;20455;-76
2023/05/25 01:44:31;;;;;;;18.23;6.03;;;10.00;99.90;;;;;;5053203;28;20165;-76
2023/05/25 01:47:12;;;;;;;15.75;6.35;;;10.00;99.90;;;;;;5025683;28;20146;-76
2023/05/25 01:50:01;;;;;;;16.58;5.70;;;9.90;99.90;;;;;;5052692;28;20051;-76
2023/05/25 01:53:03;;;;;;;15.98;6.65;;;9.90;99.90;;;;;;5039252;28;20141;-76
2023/05/25 01:55:36;;;;;;;19.95;6.88;;;9.90;99.90;;;;;;5061825;28;20052;-76
2023/05/25 01:58:02;;;;;;;;;;;9.90;99.90;;;;;;5050252;28;20078;-76
2023/05/25 02:00:33;;;;;;;16.40;5.68;;;9.80;99.90;;;;;;5068562;28;19916;-76
2023/05/25 02:03:02;;;;;;;18.83;6.50;;;9.80;99.90;;;;;;5068254;28;20486;-76
2023/05/25 02:05:28;;;;;;;17.27;6.68;;;9.80;99.90;;;;;;5047236;28;20036;-76
2023/05/25 02:07:53;;;;;;;15.77;6.55;;;9.80;99.90;;;;;;5060055;28;20052;-76
2023/05/25 02:10:19;;;;;;;15.52;6.47;;;9.80;99.90;;;;;;5037382;28;20041;-76
2023/05/25 02:12:45;;;;;;;15.40;6.30;;;9.80;99.90;;;;;;5054824;28;20041;-76
2023/05/25 02:15:11;;;;;;;17.58;6.70;;;9.80;99.90;;;;;;5064277;28;20186;-76
2023/05/25 02:17:37;;;;;;;18.73;7.03;;;9.80;99.90;;;;;;5064152;28;20121;-76
2023/05/25 02:20:07;;;;;;;18.48;6.63;;;9.80;99.90;;;;;;5049189;28;20124;-76
2023/05/25 02:22:32;;;;;;;18.58;7.13;;;9.80;99.90;;;;;;5055221;28;20056;-76
2023/05/25 02:24:58;;;;;;;18.83;6.65;;;9.80;99.90;;;;;;5066098;28;20033;-76
2023/05/25 02:27:27;;;;;;;18.17;6.30;;;9.80;99.90;;;;;;5035007;28;20045;-76
2023/05/25 02:29:53;;;;;;;18.27;7.05;;;9.80;99.90;;;;;;5039504;28;20413;-76
2023/05/25 02:32:18;;;;;;;17.10;6.40;;;9.80;99.90;;;;;;5044157;28;20033;-76
2023/05/25 02:34:45;;;;;;;15.50;6.63;;;9.80;99.90;;;;;;5044745;28;20127;-76
2023/05/25 02:37:11;;;;;;;17.10;7.18;;;9.80;99.90;;;;;;5062055;28;20044;-76
2023/05/25 02:39:37;;;;;;;19.08;6.55;;;9.80;99.90;;;;;;5063532;28;20045;-76
2023/05/25 02:42:02;;;;;;;17.60;8.00;;;9.80;99.90;;;;;;5061927;28;20064;-76
2023/05/25 02:44:28;;;;;;;16.58;6.80;;;9.80;99.90;;;;;;5042447;28;20048;-76
2023/05/25 02:46:54;;;;;;;15.73;6.43;;;9.80;99.90;;;;;;5059437;28;20043;-76
2023/05/25 02:49:19;;;;;;;15.02;6.40;;;9.80;99.90;;;;;;5061990;28;20060;-76
2023/05/25 02:51:45;;;;;;;16.95;6.35;;;9.80;99.90;;;;;;5043917;28;20475;-76
2023/05/25 02:54:11;;;;;;;19.58;6.97;;;9.80;99.90;;;;;;5061331;28;21217;-76
2023/05/25 02:56:37;;;;;;;17.88;6.50;;;9.70;99.90;;;;;;5059517;28;20132;-76
2023/05/25 02:59:02;;;;;;;17.65;6.40;;;9.70;99.90;;;;;;5045655;28;20047;-76
2023/05/25 03:01:29;;;;;;;17.95;6.53;;;9.70;99.90;;;;;;5042003;28;20036;-76
2023/05/25 03:03:55;;;;;;;16.35;6.50;;;9.70;99.90;;;;;;5062201;28;20133;-76
2023/05/25 03:06:21;;;;;;;20.98;7.28;;;9.70;99.90;;;;;;5041587;28;20951;-76
2023/05/25 03:08:48;;;;;;;16.48;6.97;;;9.60;99.90;;;;;;5041256;28;20040;-76
2023/05/25 03:11:13;;;;;;;15.05;6.43;;;9.90;99.90;;;;;;5047224;28;20066;-76
2023/05/25 03:13:39;;;;;;;15.38;6.25;;;9.60;99.90;;;;;;5063390;28;20486;-76
2023/05/25 03:16:05;;;;;;;16.83;6.30;;;9.60;99.90;;;;;;5062752;28;20043;-76
2023/05/25 03:18:31;;;;;;;18.00;6.35;;;9.60;99.90;;;;;;5026825;28;20036;-77
2023/05/25 03:20:57;;;;;;;15.90;6.63;;;9.60;99.90;;;;;;5058575;28;20521;-76
2023/05/25 03:23:22;;;;;;;16.13;6.88;;;9.60;99.90;;;;;;5027042;28;20119;-76
2023/05/25 03:25:49;;;;;;;22.13;7.10;;;9.60;99.90;;;;;;5027420;28;20032;-76
2023/05/25 03:28:15;;;;;;;18.15;6.90;;;9.60;99.90;;;;;;5039657;28;20517;-76
2023/05/25 03:30:41;;;;;;;18.65;7.13;;;9.60;99.90;;;;;;5062731;28;20373;-76
2023/05/25 03:33:06;;;;;;;17.08;7.05;;;9.50;99.90;;;;;;5062034;28;20132;-76
2023/05/25 03:35:32;;;;;;;16.80;6.90;;;9.60;99.90;;;;;;5045284;28;20040;-76
2023/05/25 03:37:58;;;;;;;20.27;7.97;;;9.60;99.90;;;;;;5043362;28;20119;-76
2023/05/25 03:40:24;;;;;;;17.08;6.63;;;9.60;99.90;;;;;;5062284;28;20044;-76
2023/05/25 03:42:49;;;;;;;18.05;7.55;;;9.60;99.90;;;;;;5048070;28;20254;-76
2023/05/25 03:45:15;;;;;;;17.75;6.82;;;9.60;99.90;;;;;;5066556;28;20051;-76
2023/05/25 03:47:41;;;;;;;15.40;6.80;;;9.60;99.90;;;;;;5063982;28;20052;-76
2023/05/25 03:50:07;;;;;;;16.23;6.82;;;9.60;99.90;;;;;;5063708;28;20087;-76
2023/05/25 03:52:33;;;;;;;17.13;6.78;;;9.60;99.90;;;;;;5050202;28;20142;-76
2023/05/25 03:55:00;;;;;;;18.98;6.95;;;9.60;99.90;;;;;;5043161;28;20132;-76
2023/05/25 03:57:27;;;;;;;16.42;6.97;;;9.60;99.90;;;;;;5065047;28;20040;-76
2023/05/25 03:59:53;;;;;;;17.52;7.18;;;9.60;99.90;;;;;;5034847;28;20519;-76
2023/05/25 04:02:18;;;;;;;19.65;7.38;;;9.60;99.90;;;;;;5047619;28;20069;-76
2023/05/25 04:04:44;;;;;;;19.27;7.28;;;9.60;99.90;;;;;;5030988;28;20068;-76
2023/05/25 04:07:10;;;;;;;20.42;7.78;;;9.60;99.90;;;;;;5024729;28;20463;-76
2023/05/25 04:09:36;;;;;;;18.52;7.38;;;9.60;99.90;;;;;;5061397;28;20278;-76
2023/05/25 04:12:01;;;;;;;17.20;7.18;;;9.60;99.90;;;;;;5059124;28;20041;-76
2023/05/25 04:14:27;;;;;;;20.45;7.55;;;9.70;99.90;;;;;;5034484;28;20052;-76
2023/05/25 04:16:53;;;;;;;16.90;7.05;;;9.70;99.90;;;;;;5036147;28;20098;-76
2023/05/25 04:19:19;;;;;;;19.77;7.15;;;9.80;99.90;;;;;;5065092;28;20457;-76
2023/05/25 04:21:45;;;;;;;17.38;6.68;;;9.90;99.90;;;;;;5051488;28;20105;-76
2023/05/25 04:24:10;;;;;;;16.70;7.05;;;9.90;99.90;;;;;;5032288;28;20052;-76
2023/05/25 04:26:38;;;;;;;18.70;7.10;;;9.90;99.90;;;;;;5068213;28;20510;-76
2023/05/25 04:29:04;;;;;;;18.50;7.43;;;10.00;99.90;;;;;;5064680;28;20174;-76
2023/05/25 04:31:29;;;;;;;20.27;6.97;;;10.00;99.90;;;;;;5049362;28;20075;-76
2023/05/25 04:33:55;;;;;;;18.65;7.00;;;10.10;99.90;;;;;;5064171;28;20048;-76
2023/05/25 04:36:22;;;;;;;16.33;6.60;;;10.20;99.90;;;;;;5069457;28;20532;-76
2023/05/25 04:38:51;;;;;;;18.05;6.80;;;10.20;99.90;;;;;;5061882;28;20449;-76
2023/05/25 04:41:18;;;;;;;19.08;6.78;;;10.30;99.90;;;;;;5024119;28;20036;-76
2023/05/25 04:43:44;;;;;;;16.88;6.55;;;10.40;99.90;;;;;;5062757;28;20372;-76
2023/05/25 04:46:12;;;;;;;16.77;6.65;;;10.40;99.90;;;;;;5028628;28;20056;-76
2023/05/25 04:48:39;;;;;;;17.42;7.60;;;10.50;99.90;;;;;;5039509;28;20045;-76
2023/05/25 04:51:06;;;;;;;17.98;6.68;;;10.60;99.90;;;;;;5031316;28;20052;-76
2023/05/25 04:53:34;;;;;;;16.77;7.25;;;10.70;99.90;;;;;;5037768;28;20036;-76
2023/05/25 04:56:00;;;;;;;20.30;6.85;;;10.80;99.90;;;;;;5039698;28;20053;-76
2023/05/25 04:58:28;;;;;;;16.42;6.35;;;10.80;99.90;;;;;;5043460;28;20452;-76
2023/05/25 05:00:54;;;;;;;18.42;6.65;;;10.90;99.90;;;;;;5061724;28;20148;-76
2023/05/25 05:03:20;;;;;;;16.13;6.22;;;11.00;99.90;;;;;;5038357;28;20044;-76
2023/05/25 05:05:46;;;;;;;18.08;6.70;;;11.10;99.90;;;;;;5058157;28;20051;-76
2023/05/25 05:08:11;;;;;;;16.95;6.50;;;11.20;99.90;;;;;;5041953;28;20185;-76
2023/05/25 05:10:37;;;;;;;15.50;6.85;;;11.30;99.90;;;;;;5058355;28;20052;-76
2023/05/25 05:13:03;;;;;;;17.17;6.40;;;11.40;99.90;;;;;;5043593;28;20044;-76
2023/05/25 05:15:28;;;;;;;14.20;5.93;;;11.40;99.90;;;;;;5060817;28;20124;-76
2023/05/25 05:17:54;;;;;;;15.85;6.10;;;11.50;99.90;;;;;;5047053;28;20045;-76
2023/05/25 05:20:20;;;;;;;17.65;5.82;;;11.60;99.90;;;;;;5066074;28;20037;-76
2023/05/25 05:22:46;;;;;;;14.48;5.85;;;11.70;99.90;;;;;;5041190;28;20734;-76
2023/05/25 05:25:11;;;;;;;18.58;6.50;;;11.70;99.90;;;;;;5057069;28;20423;-75
2023/05/25 05:27:37;;;;;;;16.52;6.00;;;11.80;99.90;;;;;;5043471;28;20172;-76
2023/05/25 05:30:03;;;;;;;17.23;6.78;;;11.90;99.90;;;;;;5047060;28;20518;-76
2023/05/25 05:32:29;;;;;;;17.05;5.55;;;11.90;99.90;;;;;;5035227;28;20171;-75
2023/05/25 05:34:55;;;;;;;17.83;6.35;;;11.90;99.90;;;;;;5036340;28;20040;-75
2023/05/25 05:37:20;;;;;;;17.45;6.35;;;12.00;99.90;;;;;;5062706;28;20111;-75
2023/05/25 05:39:46;;;;;;;14.60;5.28;;;12.00;99.90;;;;;;5046212;28;20032;-75
2023/05/25 05:42:12;;;;;;;16.45;5.70;;;12.10;99.90;;;;;;5064453;28;20097;-75
2023/05/25 05:44:37;;;;;;;15.07;5.60;;;12.20;99.90;;;;;;5046183;28;21512;-75
2023/05/25 05:47:03;;;;;;;18.63;5.80;;;12.20;99.90;;;;;;5064853;28;20108;-75
2023/05/25 05:49:30;;;;;;;17.92;5.22;;;12.30;99.90;;;;;;5060611;28;20040;-75
2023/05/25 05:51:56;;;;;;;14.65;5.10;;;12.40;99.90;;;;;;5042471;28;20044;-75
2023/05/25 05:54:21;;;;;;;16.05;4.50;;;12.50;99.90;;;;;;5039659;28;20036;-75
2023/05/25 05:56:47;;;;;;;16.75;5.20;;;12.60;99.90;;;;;;5044893;28;20052;-75
2023/05/25 05:59:13;;;;;;;19.70;4.78;;;12.70;99.90;;;;;;5059351;28;20090;-75
2023/05/25 06:01:39;;;;;;;17.55;4.32;;;12.80;99.90;;;;;;5058157;28;20572;-75
2023/05/25 06:04:05;;;;;;;14.55;4.15;;;12.90;99.90;;;;;;5045419;28;20113;-76
2023/05/25 06:06:33;;;;;;;15.93;4.13;;;12.90;99.90;;;;;;5044178;28;20028;-75
2023/05/25 06:09:02;;;;;;;13.13;3.70;;;12.90;99.90;;;;;;5041970;28;20045;-76
2023/05/25 06:11:28;;;;;;;15.70;4.05;;;12.90;99.90;;;;;;5076032;28;20624;-75
2023/05/25 06:13:54;;;;;;;21.08;4.90;;;12.90;99.90;;;;;;5040725;28;20072;-75
2023/05/25 06:16:20;;;;;;;20.42;4.85;;;12.90;99.90;;;;;;5060201;28;20064;-75
2023/05/25 06:18:45;;;;;;;17.58;5.03;;;12.90;99.90;;;;;;5059368;28;20153;-75
2023/05/25 06:21:11;;;;;;;17.92;4.95;;;12.90;99.90;;;;;;5057459;28;20040;-74
2023/05/25 06:23:37;;;;;;;16.52;4.53;;;13.00;99.90;;;;;;5062881;28;20505;-74
2023/05/25 06:26:04;;;;;;;16.48;4.22;;;13.00;99.90;;;;;;5058789;28;20045;-75
2023/05/25 06:28:30;;;;;;;18.60;5.03;;;13.10;99.90;;;;;;5030828;28;20585;-75
2023/05/25 06:30:55;;;;;;;17.58;4.72;;;13.20;99.90;;;;;;5038244;28;20284;-75
2023/05/25 06:33:22;;;;;;;19.65;5.18;;;13.20;99.90;;;;;;5059124;28;20109;-76
2023/05/25 06:35:48;;;;;;;15.88;4.40;;;13.20;99.90;;;;;;5043469;28;20513;-75
2023/05/25 06:38:13;;;;;;;18.48;4.93;;;13.30;99.90;;;;;;5057886;28;20189;-75
2023/05/25 06:40:39;;;;;;;19.85;5.00;;;13.30;99.90;;;;;;5042034;28;20072;-75
2023/05/25 06:43:05;;;;;;;19.52;5.05;;;13.40;99.90;;;;;;5026698;28;20464;-75
2023/05/25 06:45:31;;;;;;;19.58;4.75;;;13.40;99.90;;;;;;5061261;28;20032;-75
2023/05/25 06:47:56;;;;;;;15.95;4.28;;;13.50;99.90;;;;;;5057905;28;20045;-75
2023/05/25 06:50:22;;;;;;;19.40;4.97;;;13.60;99.90;;;;;;5027751;28;20043;-76
2023/05/25 06:52:48;;;;;;;19.17;4.72;;;13.70;99.90;;;;;;5023308;28;20789;-76
2023/05/25 06:55:14;;;;;;;21.25;4.85;;;13.60;99.90;;;;;;5074481;28;20032;-76
2023/05/25 06:57:39;;;;;;;22.95;5.22;;;13.60;99.90;;;;;;5029478;28;20028;-75
2023/05/25 07:00:10;;;;;;;21.08;4.65;;;13.60;99.90;;;;;;5059233;28;20045;-75
2023/05/25 07:02:36;;;;;;;20.23;4.70;;;13.70;99.90;;;;;;5062812;28;20364;-74
2023/05/25 07:05:04;;;;;;;19.58;4.78;;;13.70;99.90;;;;;;5061517;28;20086;-75
2023/05/25 07:07:30;;;;;;;20.20;4.47;;;13.80;99.90;;;;;;5058736;28;20033;-75
2023/05/25 07:09:56;;;;;;;21.20;5.47;;;14.00;99.90;;;;;;5057005;28;20394;-75
2023/05/25 07:12:22;;;;;;;17.88;5.05;;;14.10;99.90;;;;;;5058861;28;20041;-75
2023/05/25 07:14:48;;;;;;;20.23;4.90;;;14.40;99.90;;;;;;5057063;28;20119;-75
2023/05/25 07:17:14;;;;;;;17.92;4.60;;;14.40;99.90;;;;;;5061541;28;20045;-75
2023/05/25 07:19:42;;;;;;;23.33;5.28;;;14.40;99.90;;;;;;5041083;28;20140;-74
2023/05/25 07:22:09;;;;;;;17.60;4.60;;;14.30;99.90;;;;;;5042086;28;20433;-75
2023/05/25 07:24:35;;;;;;;20.23;4.93;;;14.30;99.90;;;;;;5056505;28;20051;-75
2023/05/25 07:27:02;;;;;;;18.90;4.25;;;14.40;99.90;;;;;;5026457;28;20041;-75
2023/05/25 07:29:28;;;;;;;20.70;4.72;;;14.40;99.90;;;;;;5041285;28;20033;-75
2023/05/25 07:31:54;;;;;;;17.77;4.75;;;14.50;99.90;;;;;;5058275;28;20405;-75
2023/05/25 07:34:19;;;;;;;19.20;4.57;;;14.60;99.90;;;;;;5043946;28;20477;-76
2023/05/25 07:36:45;;;;;;;19.60;4.80;;;14.70;99.90;;;;;;5054285;28;20036;-75
2023/05/25 07:39:11;;;;;;;23.25;4.45;;;14.70;99.90;;;;;;5056976;28;20044;-76
2023/05/25 07:41:38;;;;;;;21.40;4.97;;;14.80;99.90;;;;;;5041818;28;20036;-76
2023/05/25 07:44:04;;;;;;;22.65;5.30;;;14.80;99.90;;;;;;5059025;28;20490;-76
2023/05/25 07:46:29;;;;;;;22.95;4.80;;;14.80;99.90;;;;;;5054728;28;20106;-75
2023/05/25 07:48:57;;;;;;;24.27;5.22;;;14.80;99.90;;;;;;5040195;28;21149;-75
2023/05/25 07:51:25;;;;;;;21.23;4.50;;;14.90;99.90;;;;;;5040098;28;20486;-75
2023/05/25 07:53:52;;;;;;;19.73;4.55;;;15.10;99.90;;;;;;5044154;28;20040;-75
2023/05/25 07:56:18;;;;;;;21.48;5.50;;;15.20;99.90;;;;;;5043195;28;20045;-75
2023/05/25 07:58:45;;;;;;;21.63;5.28;;;15.30;99.90;;;;;;5056103;28;20051;-75
2023/05/25 08:01:10;;;;;;;22.20;5.05;;;15.10;99.90;;;;;;5059907;28;20033;-76
2023/05/25 08:03:36;;;;;;;25.10;5.53;;;15.00;99.90;;;;;;5057899;28;20782;-75
2023/05/25 08:06:02;;;;;;;25.10;5.15;;;14.90;99.90;;;;;;5053423;28;20040;-76
2023/05/25 08:08:28;;;;;;;22.63;5.07;;;14.70;99.90;;;;;;5055153;28;20500;-75
2023/05/25 08:10:53;;;;;;;21.50;4.95;;;14.60;99.90;;;;;;5056602;28;20040;-75
2023/05/25 08:13:19;;;;;;;23.23;5.57;;;14.70;99.90;;;;;;5058470;28;20082;-75
2023/05/25 08:15:45;;;;;;;21.58;5.55;;;14.90;99.90;;;;;;5027647;28;20124;-75
2023/05/25 08:18:10;;;;;;;19.83;5.35;;;14.90;99.90;;;;;;5044086;28;20608;-75
2023/05/25 08:20:36;;;;;;;24.10;5.70;;;14.90;99.90;;;;;;5025536;28;20052;-75
2023/05/25 08:23:03;;;;;;;21.85;5.18;;;14.90;99.90;;;;;;5042970;28;20033;-76
2023/05/25 08:25:29;;;;;;;22.25;5.40;;;14.90;99.90;;;;;;5058853;28;20056;-75
2023/05/25 08:27:55;;;;;;;23.73;5.38;;;14.80;99.90;;;;;;5042395;28;20102;-75
2023/05/25 08:30:20;;;;;;;21.42;5.03;;;14.80;99.90;;;;;;5040571;28;20036;-75
2023/05/25 08:32:46;;;;;;;28.65;5.95;;;14.70;99.90;;;;;;5059542;28;20040;-75
2023/05/25 08:35:12;;;;;;;22.52;4.93;;;14.80;99.90;;;;;;5042491;28;20040;-75
2023/05/25 08:37:39;;;;;;;22.33;5.15;;;14.90;99.90;;;;;;5058158;28;20129;-75
2023/05/25 08:40:06;;;;;;;20.67;4.88;;;14.80;99.90;;;;;;5059824;28;20059;-76
2023/05/25 08:42:32;;;;;;;23.00;5.75;;;15.00;99.90;;;;;;5057257;28;20055;-75
2023/05/25 08:44:58;;;;;;;24.88;5.13;;;15.00;99.90;;;;;;5040226;28;20037;-75
2023/05/25 08:47:30;;;;;;;16.45;4.57;;;14.90;99.90;;;;;;5059819;28;20032;-76
2023/05/25 08:49:58;;;;;;;20.75;4.78;;;15.10;99.90;;;;;;5055715;28;20037;-75
2023/05/25 08:52:28;;;;;;;20.25;5.50;;;15.20;99.90;;;;;;5057266;28;20182;-75
2023/05/25 08:54:56;;;;;;;22.98;5.13;;;15.40;99.90;;;;;;5058784;28;20092;-75
2023/05/25 08:57:30;;;;;;;32.05;5.22;;;15.50;99.90;;;;;;5043417;28;20418;-75
2023/05/25 09:00:09;;;;;;;16.70;4.35;;;15.50;99.90;;;;;;5057229;28;20032;-76
2023/05/25 09:02:41;;;;;;;20.83;4.45;;;15.60;99.90;;;;;;5036530;28;20040;-76
2023/05/25 09:05:07;;;;;;;20.80;4.60;;;15.70;99.90;;;;;;5042860;28;20062;-75
2023/05/25 09:07:34;;;;;;;18.13;5.03;;;15.70;99.90;;;;;;5061091;28;20105;-75
2023/05/25 09:10:01;;;;;;;19.20;4.28;;;15.70;99.90;;;;;;5048548;28;20063;-76
2023/05/25 09:12:30;;;;;;;19.20;5.10;;;15.70;99.90;;;;;;5045618;28;20113;-76
2023/05/25 09:14:57;;;;;;;19.40;4.45;;;15.60;99.90;;;;;;5061786;28;20045;-76
2023/05/25 09:17:23;;;;;;;21.98;5.20;;;15.70;99.90;;;;;;5058993;28;20048;-75
2023/05/25 09:19:49;;;;;;;19.00;4.15;;;15.80;99.90;;;;;;5031498;28;20041;-75
2023/05/25 09:22:14;;;;;;;23.50;4.80;;;15.70;99.90;;;;;;5047325;28;20407;-75
2023/05/25 09:24:42;;;;;;;24.17;5.05;;;15.50;99.90;;;;;;5044203;28;20516;-76
2023/05/25 09:27:17;;;;;;;17.13;4.53;;;15.30;99.90;;;;;;5062437;28;20053;-75
2023/05/25 09:29:43;;;;;;;16.92;4.57;;;15.40;99.90;;;;;;5058576;28;20048;-75
2023/05/25 09:32:08;;;;;;;23.13;4.93;;;15.60;99.90;;;;;;5058006;28;20036;-75
2023/05/25 09:34:34;;;;;;;18.33;4.75;;;15.60;99.90;;;;;;5062545;28;20037;-75
2023/05/25 09:37:12;;;;;;;16.55;4.35;;;15.60;99.90;;;;;;5060862;28;20044;-75
2023/05/25 09:39:40;;;;;;;19.48;4.55;;;15.60;99.90;;;;;;5041815;28;20468;-75
2023/05/25 09:42:06;;;;;;;23.40;4.88;;;15.60;99.90;;;;;;5060725;28;20198;-76
2023/05/25 09:44:32;;;;;;;20.08;4.95;;;15.80;99.90;;;;;;5028643;28;20178;-75
2023/05/25 09:46:57;;;;;;;20.77;4.65;;;16.00;99.90;;;;;;5044895;28;20408;-75
2023/05/25 09:49:25;;;;;;;19.63;4.68;;;16.00;99.90;;;;;;5027688;28;20043;-75
2023/05/25 09:51:50;;;;;;;22.60;4.93;;;16.00;99.90;;;;;;5060579;28;20161;-75
2023/05/25 09:54:16;;;;;;;16.73;4.70;;;15.90;99.90;;;;;;5062330;28;20119;-75
2023/05/25 09:56:42;;;;;;;22.15;5.43;;;15.50;99.90;;;;;;5043137;28;20402;-76
2023/05/25 09:59:08;;;;;;;19.55;5.18;;;15.30;99.90;;;;;;5045534;28;20469;-75
2023/05/25 10:01:35;;;;;;;22.02;5.20;;;14.90;99.90;;;;;;5047648;28;20078;-75
2023/05/25 10:04:01;;;;;;;18.27;5.22;;;15.10;99.90;;;;;;5046878;28;20057;-75
2023/05/25 10:06:27;;;;;;;23.45;5.07;;;15.30;99.90;;;;;;5057443;28;20036;-75
2023/05/25 10:08:56;;;;;;;20.40;4.95;;;15.10;99.90;;;;;;5047938;28;20032;-76
2023/05/25 10:11:28;;;;;;;22.80;5.57;;;15.20;99.90;;;;;;5059308;28;20037;-75
2023/05/25 10:13:54;;;;;;;21.85;5.28;;;15.40;99.90;;;;;;5045060;28;20482;-75
2023/05/25 10:16:28;;;;;;;23.20;5.65;;;15.60;99.90;;;;;;5022453;28;20115;-75
2023/05/25 10:19:24;;;;;;;19.95;4.78;;;15.60;99.90;;;;;;5027546;28;20043;-75
2023/05/25 10:22:14;;;;;;;19.70;4.78;;;15.50;99.90;;;;;;5059065;28;20109;-75
2023/05/25 10:24:55;;;;;;;20.85;5.10;;;15.40;99.90;;;;;;5039470;28;20094;-75
2023/05/25 10:27:23;;;;;;;20.30;5.13;;;15.40;99.90;;;;;;5044144;28;20028;-75
2023/05/25 10:29:51;;;;;;;19.00;5.07;;;15.30;99.90;;;;;;5062435;28;20129;-75
2023/05/25 10:32:17;;;;;;;17.75;4.70;;;15.20;99.90;;;;;;5058401;28;20045;-75
2023/05/25 10:34:44;;;;;;;20.27;5.18;;;15.30;99.90;;;;;;5045416;28;20080;-75
2023/05/25 10:37:11;;;;;;;17.58;4.82;;;15.40;99.90;;;;;;5062156;28;20126;-76
2023/05/25 10:39:37;;;;;;;23.75;5.22;;;15.60;99.90;;;;;;5061380;28;20044;-75
2023/05/25 10:42:04;;;;;;;19.90;5.28;;;15.50;99.90;;;;;;5061734;28;20052;-75
2023/05/25 10:44:31;;;;;;;22.25;5.63;;;15.40;99.90;;;;;;5063151;28;20048;-75
2023/05/25 10:47:01;;;;;;;19.70;5.00;;;15.40;99.90;;;;;;5038947;28;20044;-75
2023/05/25 10:49:32;;;;;;;21.08;5.85;;;15.30;99.90;;;;;;5057004;28;20374;-76
2023/05/25 10:51:59;;;;;;;20.60;5.18;;;15.20;99.90;;;;;;5047606;28;20571;-75
2023/05/25 10:54:38;;;;;;;20.83;5.03;;;15.20;99.90;;;;;;5061053;28;20055;-76
2023/05/25 10:57:09;;;;;;;24.88;6.10;;;15.30;99.90;;;;;;5057526;28;20286;-75
2023/05/25 10:59:39;;;;;;;23.50;5.75;;;15.40;99.90;;;;;;5044552;28;20041;-76
2023/05/25 11:02:05;;;;;;;22.73;6.10;;;15.60;99.90;;;;;;5061984;28;20529;-76
2023/05/25 11:04:35;;;;;;;22.92;5.47;;;15.70;99.90;;;;;;5041496;28;20482;-76
2023/05/25 11:07:01;;;;;;;24.67;5.57;;;15.80;99.90;;;;;;5028198;28;20470;-75
2023/05/25 11:09:30;;;;;;;22.23;4.45;;;15.70;99.90;;;;;;5053697;28;20032;-76
2023/05/25 11:11:57;;;;;;;26.05;5.65;;;15.70;99.90;;;;;;5046311;28;20395;-75
2023/05/25 11:14:26;;;;;;;19.63;5.28;;;15.70;99.90;;;;;;5043884;28;20305;-76
2023/05/25 11:17:17;;;;;;;18.80;4.65;;;15.60;99.90;;;;;;5060626;28;20101;-76
2023/05/25 11:19:49;;;;;;;26.98;6.22;;;15.60;99.90;;;;;;5055683;28;20465;-76
2023/05/25 11:22:19;;;;;;;20.08;5.63;;;15.50;99.90;;;;;;5060266;28;20136;-76
2023/05/25 11:24:49;;;;;;;23.10;4.65;;;15.40;99.90;;;;;;5057089;28;20029;-76
2023/05/25 11:27:15;;;;;;;28.38;5.95;;;15.40;99.90;;;;;;5050674;28;20041;-76
2023/05/25 11:29:40;;;;;;;19.85;5.10;;;15.30;99.90;;;;;;5042804;28;20062;-75
2023/05/25 11:32:13;;;;;;;24.48;5.45;;;15.40;99.90;;;;;;5079365;28;20044;-76
2023/05/25 11:34:45;;;;;;;;;;;15.40;99.90;;;;;;5044891;28;20498;-76
2023/05/25 11:37:23;;;;;;;18.42;4.18;;;15.60;99.90;;;;;;5048783;28;19923;-75
2023/05/25 11:39:53;;;;;;;19.42;4.85;;;15.70;99.90;;;;;;5042378;28;20028;-76
2023/05/25 11:42:23;;;;;;;20.33;4.70;;;15.90;99.90;;;;;;5064470;28;20044;-76
2023/05/25 11:44:50;;;;;;;19.67;4.85;;;16.10;99.90;;;;;;5064688;28;20300;-76
2023/05/25 11:47:18;;;;;;;21.08;4.90;;;16.00;99.90;;;;;;5051142;28;20048;-75
2023/05/25 11:49:46;;;;;;;21.15;4.63;;;15.70;99.90;;;;;;5035720;28;20399;-76
2023/05/25 11:52:13;;;;;;;20.45;5.10;;;15.80;99.90;;;;;;5040533;28;20299;-76
2023/05/25 11:54:42;;;;;;;18.73;4.50;;;15.90;99.90;;;;;;5065445;28;20106;-75
2023/05/25 11:57:21;;;;;;;19.98;4.93;;;15.80;99.90;;;;;;5056739;28;20054;-75
2023/05/25 11:59:52;;;;;;;19.08;4.82;;;15.60;99.90;;;;;;5061692;28;20036;-75
2023/05/25 12:02:18;;;;;;;20.88;4.40;;;15.60;99.90;;;;;;5056113;28;20490;-75
2023/05/25 12:04:58;;;;;;;18.77;4.60;;;15.70;99.90;;;;;;5045068;28;20087;-75
2023/05/25 12:07:28;;;;;;;20.38;5.00;;;15.90;99.90;;;;;;5067714;28;20029;-76
2023/05/25 12:10:15;;;;;;;19.98;4.88;;;15.90;99.90;;;;;;5052765;28;20051;-76
2023/05/25 12:12:49;;;;;;;19.60;5.15;;;16.00;99.90;;;;;;5066936;28;20447;-75
2023/05/25 12:15:23;;;;;;;19.90;5.35;;;15.90;99.90;;;;;;5056968;28;20121;-76
2023/05/25 12:17:50;;;;;;;19.20;4.70;;;15.90;99.90;;;;;;5054634;28;20116;-76
2023/05/25 12:20:16;;;;;;;20.35;5.00;;;15.90;99.90;;;;;;5040828;28;20387;-76
2023/05/25 12:22:43;;;;;;;15.98;4.32;;;15.80;99.90;;;;;;5057191;28;20040;-76
2023/05/25 12:25:10;;;;;;;23.83;5.15;;;16.00;99.90;;;;;;5064916;28;20056;-75
2023/05/25 12:27:37;;;;;;;21.20;5.10;;;16.20;99.90;;;;;;5053153;28;20036;-76
2023/05/25 12:30:08;;;;;;;23.02;5.05;;;16.20;99.90;;;;;;5055431;28;20036;-76
2023/05/25 12:32:35;;;;;;;20.63;5.53;;;16.10;99.90;;;;;;5040616;28;20116;-76
2023/05/25 12:35:07;;;;;;;22.98;5.10;;;16.20;99.90;;;;;;5057628;28;20051;-74
2023/05/25 12:37:33;;;;;;;24.85;5.45;;;16.00;99.90;;;;;;5043085;28;20124;-75
2023/05/25 12:39:59;;;;;;;19.27;4.78;;;15.90;99.90;;;;;;5060737;28;21945;-75
2023/05/25 12:42:31;;;;;;;16.98;4.82;;;16.00;99.90;;;;;;5061984;28;20040;-75